createdAt,value
2019-02-18T00:00:52.285Z,17.90
2019-02-18T00:03:23.003Z,16.93
2019-02-18T00:05:52.755Z,20.00
2019-02-18T00:08:23.224Z,17.57
2019-02-18T00:10:53.511Z,17.63
2019-02-18T00:13:24.010Z,17.53
2019-02-18T00:15:54.273Z,21.77
2019-02-18T00:18:24.811Z,21.27
2019-02-18T00:20:54.965Z,23.00
2019-02-18T00:23:25.582Z,23.40
2019-02-18T00:25:55.913Z,24.73
2019-02-18T00:28:26.440Z,20.73
2019-02-18T00:30:56.987Z,22.63
2019-02-18T00:33:27.250Z,23.13
2019-02-18T00:35:57.557Z,22.90
2019-02-18T00:38:27.775Z,21.53
2019-02-18T00:40:58.447Z,27.60
2019-02-18T00:43:28.740Z,22.07
2019-02-18T00:45:59.604Z,22.97
2019-02-18T00:48:30.252Z,24.20
2019-02-18T00:51:00.415Z,19.67
2019-02-18T00:53:31.047Z,26.70
2019-02-18T00:56:01.359Z,22.47
2019-02-18T00:58:32.077Z,23.37
2019-02-18T01:01:02.231Z,21.10
2019-02-18T01:03:32.721Z,19.23
2019-02-18T01:06:02.937Z,21.00
2019-02-18T01:08:33.163Z,18.40
2019-02-18T01:11:03.503Z,22.00
2019-02-18T01:13:34.147Z,22.57
2019-02-18T01:16:04.782Z,23.80
2019-02-18T01:18:35.296Z,21.60
2019-02-18T01:21:05.935Z,25.03
2019-02-18T01:23:35.936Z,24.20
2019-02-18T01:26:06.495Z,24.43
2019-02-18T01:28:36.971Z,25.07
2019-02-18T01:31:07.497Z,23.30
2019-02-18T01:33:37.770Z,23.03
2019-02-18T01:36:07.999Z,24.47
2019-02-18T01:38:38.299Z,24.17
2019-02-18T01:41:09.031Z,24.53
2019-02-18T01:43:39.652Z,23.30
2019-02-18T01:46:10.021Z,24.17
2019-02-18T01:48:39.923Z,24.60
2019-02-18T01:51:11.656Z,21.93
2019-02-18T01:53:42.222Z,24.47
2019-02-18T01:56:12.775Z,22.10
2019-02-18T01:58:43.301Z,26.17
2019-02-18T02:01:13.618Z,27.10
2019-02-18T02:03:43.856Z,23.10
2019-02-18T02:06:14.391Z,25.87
2019-02-18T02:08:44.852Z,25.73
2019-02-18T02:11:15.381Z,26.87
2019-02-18T02:13:45.969Z,28.63
2019-02-18T02:16:15.870Z,24.47
2019-02-18T02:18:46.525Z,25.00
2019-02-18T02:21:16.738Z,25.63
2019-02-18T02:23:46.967Z,25.83
2019-02-18T02:26:17.311Z,29.47
2019-02-18T02:28:47.852Z,26.23
2019-02-18T02:31:18.601Z,24.43
2019-02-18T02:33:49.135Z,26.53
2019-02-18T02:36:19.644Z,26.90
2019-02-18T02:38:50.121Z,22.00
2019-02-18T02:41:20.641Z,26.00
2019-02-18T02:43:51.300Z,21.40
2019-02-18T02:46:21.559Z,22.77
2019-02-18T02:48:52.117Z,26.83
2019-02-18T02:51:22.415Z,22.60
2019-02-18T02:53:52.903Z,22.37
2019-02-18T02:56:23.442Z,23.70
2019-02-18T02:58:54.122Z,21.87
2019-02-18T03:01:24.546Z,25.90
2019-02-18T03:03:55.170Z,26.57
2019-02-18T03:06:25.464Z,22.07
2019-02-18T03:08:56.037Z,27.33
2019-02-18T03:11:26.221Z,25.47
2019-02-18T03:13:56.793Z,26.20
2019-02-18T03:16:27.269Z,36.90
2019-02-18T03:18:57.685Z,40.97
2019-02-18T03:21:27.909Z,34.37
2019-02-18T03:23:58.741Z,37.70
2019-02-18T03:26:29.295Z,36.23
2019-02-18T03:29:41.438Z,37.33
2019-02-18T03:32:11.904Z,26.83
2019-02-18T03:34:46.794Z,29.20
2019-02-18T03:37:17.036Z,21.13
2019-02-18T03:39:47.697Z,21.90
2019-02-18T03:42:18.283Z,21.67
2019-02-18T03:44:48.545Z,20.73
2019-02-18T03:47:18.741Z,27.67
2019-02-18T03:49:48.857Z,26.77
2019-02-18T03:52:19.315Z,24.73
2019-02-18T03:54:49.817Z,21.27
2019-02-18T03:57:20.152Z,22.47
2019-02-18T03:59:50.804Z,24.37
2019-02-18T04:02:21.300Z,21.27
2019-02-18T04:04:51.493Z,32.13
2019-02-18T04:07:21.457Z,33.33
2019-02-18T04:09:51.427Z,33.83
2019-02-18T04:12:22.043Z,28.80
2019-02-18T04:14:52.227Z,31.33
2019-02-18T04:17:22.188Z,31.40
2019-02-18T04:19:52.719Z,31.50
2019-02-18T04:22:23.375Z,25.67
2019-02-18T04:24:54.051Z,25.30
2019-02-18T04:27:24.531Z,31.30
2019-02-18T04:29:54.812Z,33.67
2019-02-18T04:32:25.056Z,31.93
2019-02-18T04:34:55.614Z,26.77
2019-02-18T04:37:25.908Z,27.60
2019-02-18T04:39:56.221Z,34.43
2019-02-18T04:42:26.428Z,22.67
2019-02-18T04:44:56.673Z,23.33
2019-02-18T04:47:26.692Z,24.47
2019-02-18T04:49:57.273Z,23.97
2019-02-18T04:52:27.413Z,23.57
2019-02-18T04:54:58.093Z,23.10
2019-02-18T04:57:28.272Z,23.37
2019-02-18T04:59:58.475Z,25.33
2019-02-18T05:02:28.763Z,21.03
2019-02-18T05:04:59.323Z,22.50
2019-02-18T05:07:29.760Z,22.23
2019-02-18T05:10:00.387Z,21.60
2019-02-18T05:12:30.780Z,25.73
2019-02-18T05:15:00.675Z,21.63
2019-02-18T05:17:30.856Z,22.70
2019-02-18T05:20:01.360Z,23.10
2019-02-18T05:22:31.600Z,24.27
2019-02-18T05:25:01.922Z,26.30
2019-02-18T05:27:33.557Z,30.67
2019-02-18T05:30:04.106Z,27.73
2019-02-18T05:32:34.729Z,23.20
2019-02-18T05:35:05.331Z,23.50
2019-02-18T05:37:35.853Z,23.07
2019-02-18T05:40:06.332Z,19.40
2019-02-18T05:42:36.819Z,25.17
2019-02-18T05:45:07.004Z,27.10
2019-02-18T05:47:37.590Z,30.80
2019-02-18T05:50:08.306Z,29.70
2019-02-18T05:52:38.907Z,30.80
2019-02-18T05:55:09.264Z,30.57
2019-02-18T05:57:39.413Z,25.67
2019-02-18T06:00:10.502Z,34.63
2019-02-18T06:02:40.960Z,29.77
2019-02-18T06:05:11.333Z,32.10
2019-02-18T06:07:41.827Z,32.53
2019-02-18T06:10:11.800Z,29.90
2019-02-18T06:12:42.004Z,30.07
2019-02-18T06:15:12.606Z,28.63
2019-02-18T06:17:43.378Z,27.87
2019-02-18T06:20:13.951Z,24.07
2019-02-18T06:22:44.507Z,26.80
2019-02-18T06:25:15.117Z,30.33
2019-02-18T06:27:45.370Z,29.57
2019-02-18T06:30:15.588Z,22.90
2019-02-18T06:32:46.271Z,24.67
2019-02-18T06:35:16.491Z,26.57
2019-02-18T06:37:46.412Z,22.07
2019-02-18T06:40:16.928Z,18.63
2019-02-18T06:42:47.573Z,21.93
2019-02-18T06:45:36.831Z,25.73
2019-02-18T06:48:22.917Z,25.80
2019-02-18T06:50:53.122Z,21.60
2019-02-18T06:53:23.640Z,17.73
2019-02-18T06:55:54.319Z,23.60
2019-02-18T06:58:43.570Z,26.50
2019-02-18T07:01:31.297Z,29.57
2019-02-18T07:04:26.592Z,26.33
2019-02-18T07:07:03.171Z,26.40
2019-02-18T07:09:52.013Z,28.40
2019-02-18T07:12:26.255Z,25.40
2019-02-18T07:14:56.804Z,26.17
2019-02-18T07:17:27.242Z,26.53
2019-02-18T07:19:57.831Z,28.03
2019-02-18T07:22:28.311Z,30.90
2019-02-18T07:24:58.848Z,24.20
2019-02-18T07:27:29.506Z,36.70
2019-02-18T07:30:00.375Z,25.53
2019-02-18T07:32:30.948Z,35.43
2019-02-18T07:35:00.935Z,29.93
2019-02-18T07:37:31.496Z,36.20
2019-02-18T07:40:02.426Z,37.80
2019-02-18T07:42:33.071Z,37.97
2019-02-18T07:45:03.353Z,41.30
2019-02-18T07:47:33.691Z,40.80
2019-02-18T07:50:04.324Z,52.03
2019-02-18T07:52:34.517Z,49.17
2019-02-18T07:55:04.914Z,50.00
2019-02-18T07:57:35.294Z,61.80
2019-02-18T08:00:24.139Z,68.57
2019-02-18T08:02:54.898Z,62.13
2019-02-18T08:05:25.454Z,53.33
2019-02-18T08:07:55.624Z,50.63
2019-02-18T08:10:26.282Z,37.40
2019-02-18T08:12:56.542Z,40.00
2019-02-18T08:15:27.200Z,37.30
2019-02-18T08:17:57.893Z,41.23
2019-02-18T08:20:28.522Z,37.93
2019-02-18T08:22:59.070Z,37.67
2019-02-18T08:25:29.344Z,27.80
2019-02-18T08:28:00.006Z,31.30
2019-02-18T08:30:30.667Z,34.57
2019-02-18T08:33:01.209Z,24.83
2019-02-18T08:35:31.879Z,29.63
2019-02-18T08:38:02.448Z,30.67
2019-02-18T08:40:32.912Z,29.57
2019-02-18T08:43:03.499Z,34.70
2019-02-18T08:45:33.957Z,30.70
2019-02-18T08:48:04.100Z,30.17
2019-02-18T08:50:34.791Z,31.30
2019-02-18T08:53:04.966Z,28.73
2019-02-18T08:55:35.592Z,28.10
2019-02-18T08:58:06.159Z,28.83
2019-02-18T09:00:36.342Z,25.50
2019-02-18T09:03:06.944Z,27.67
2019-02-18T09:05:37.579Z,26.03
2019-02-18T09:08:08.144Z,25.70
2019-02-18T09:10:38.756Z,24.07
2019-02-18T09:13:09.058Z,24.67
2019-02-18T09:15:39.703Z,25.30
2019-02-18T09:18:10.318Z,23.03
2019-02-18T09:20:41.179Z,23.17
2019-02-18T09:23:26.119Z,26.77
2019-02-18T09:25:59.273Z,22.97
2019-02-18T09:28:29.620Z,24.70
2019-02-18T09:30:59.560Z,25.10
2019-02-18T09:33:29.478Z,23.73
2019-02-18T09:35:59.027Z,23.00
2019-02-18T09:38:29.324Z,19.73
2019-02-18T09:40:59.627Z,21.23
2019-02-18T09:43:30.280Z,23.70
2019-02-18T09:46:00.921Z,16.67
2019-02-18T09:48:31.071Z,20.00
2019-02-18T09:51:01.264Z,16.97
2019-02-18T09:53:31.460Z,20.57
2019-02-18T09:56:01.965Z,15.90
2019-02-18T09:58:32.233Z,17.70
2019-02-18T10:01:02.844Z,17.93
2019-02-18T10:03:33.093Z,16.00
2019-02-18T10:06:03.579Z,17.13
2019-02-18T10:08:34.242Z,15.53
2019-02-18T10:11:04.624Z,21.40
2019-02-18T10:13:35.092Z,17.00
2019-02-18T10:16:05.416Z,15.10
2019-02-18T10:18:35.801Z,21.60
2019-02-18T10:21:05.948Z,17.70
2019-02-18T10:23:36.538Z,17.67
2019-02-18T10:26:06.714Z,18.60
2019-02-18T10:28:37.088Z,18.17
2019-02-18T10:31:07.628Z,18.77
2019-02-18T10:33:37.872Z,17.20
2019-02-18T10:36:08.059Z,16.93
2019-02-18T10:38:40.190Z,15.47
2019-02-18T10:41:11.093Z,21.40
2019-02-18T10:43:41.566Z,17.33
2019-02-18T10:46:11.827Z,18.63
2019-02-18T10:48:42.468Z,18.63
2019-02-18T10:51:13.050Z,20.17
2019-02-18T10:53:43.320Z,16.47
2019-02-18T10:56:13.758Z,21.20
2019-02-18T10:58:44.260Z,19.13
2019-02-18T11:01:14.512Z,15.23
2019-02-18T11:03:45.170Z,17.47
2019-02-18T11:06:15.762Z,18.67
2019-02-18T11:08:45.690Z,22.37
2019-02-18T11:11:17.199Z,17.67
2019-02-18T11:13:47.576Z,16.63
2019-02-18T11:16:18.114Z,16.43
2019-02-18T11:18:48.744Z,18.27
2019-02-18T11:21:19.395Z,18.97
2019-02-18T11:23:49.662Z,18.70
2019-02-18T11:26:20.240Z,21.10
2019-02-18T11:28:50.870Z,17.23
2019-02-18T11:31:21.036Z,14.60
2019-02-18T11:33:51.539Z,15.17
2019-02-18T11:36:21.912Z,17.17
2019-02-18T11:38:52.176Z,16.53
2019-02-18T11:41:27.431Z,13.77
2019-02-18T11:43:55.066Z,16.17
2019-02-18T11:46:25.608Z,16.43
2019-02-18T11:48:55.819Z,15.60
2019-02-18T11:51:26.063Z,17.47
2019-02-18T11:53:56.649Z,14.87
2019-02-18T11:56:27.032Z,19.47
2019-02-18T11:58:57.644Z,16.10
2019-02-18T12:01:28.537Z,18.57
2019-02-18T12:03:58.996Z,16.20
2019-02-18T12:06:29.212Z,15.57
2019-02-18T12:08:59.824Z,18.23
2019-02-18T12:11:37.997Z,13.10
2019-02-18T12:14:01.997Z,16.23
2019-02-18T12:16:32.676Z,14.87
2019-02-18T12:19:02.960Z,12.83
2019-02-18T12:21:32.963Z,13.10
2019-02-18T12:24:03.148Z,13.53
2019-02-18T12:26:33.829Z,14.67
2019-02-18T12:29:04.493Z,15.43
2019-02-18T12:31:35.136Z,11.50
2019-02-18T12:34:05.640Z,12.73
2019-02-18T12:36:36.102Z,9.97
2019-02-18T12:39:12.838Z,12.33
2019-02-18T12:41:48.687Z,10.37
2019-02-18T12:44:15.334Z,9.07
2019-02-18T12:46:53.086Z,12.03
2019-02-18T12:49:23.676Z,10.37
2019-02-18T12:51:54.238Z,15.87
2019-02-18T12:54:24.762Z,12.53
2019-02-18T12:56:55.363Z,12.03
2019-02-18T12:59:25.685Z,12.23
2019-02-18T13:01:56.316Z,11.47
2019-02-18T13:04:26.604Z,12.80
2019-02-18T13:06:57.276Z,13.20
2019-02-18T13:09:27.895Z,20.07
2019-02-18T13:11:59.251Z,18.13
2019-02-18T13:14:30.043Z,13.23
2019-02-18T13:17:00.348Z,13.63
2019-02-18T13:19:31.052Z,13.03
2019-02-18T13:22:01.696Z,12.00
2019-02-18T13:24:31.893Z,9.70
2019-02-18T13:27:02.579Z,10.33
2019-02-18T13:29:33.048Z,11.10
2019-02-18T13:32:02.988Z,11.90
2019-02-18T13:34:33.256Z,8.33
2019-02-18T13:37:04.954Z,9.77
2019-02-18T13:39:35.428Z,10.77
2019-02-18T13:42:07.754Z,9.30
2019-02-18T13:44:38.266Z,9.00
2019-02-18T13:47:08.734Z,10.00
2019-02-18T13:49:39.512Z,10.47
2019-02-18T13:52:09.848Z,9.93
2019-02-18T13:54:40.457Z,9.53
2019-02-18T13:57:11.019Z,10.40
2019-02-18T13:59:41.932Z,7.97
2019-02-18T14:02:11.960Z,7.47
2019-02-18T14:04:42.011Z,9.23
2019-02-18T14:07:12.298Z,8.03
2019-02-18T14:09:43.065Z,7.00
2019-02-18T14:12:16.072Z,7.10
2019-02-18T14:14:45.821Z,7.13
2019-02-18T14:17:16.329Z,8.23
2019-02-18T14:19:48.073Z,5.63
2019-02-18T14:22:18.536Z,9.07
2019-02-18T14:24:48.900Z,7.80
2019-02-18T14:27:19.758Z,7.80
2019-02-18T14:29:50.514Z,9.27
2019-02-18T14:32:21.106Z,7.47
2019-02-18T14:34:51.702Z,8.37
2019-02-18T14:37:22.506Z,7.30
2019-02-18T14:39:52.703Z,6.77
2019-02-18T14:42:24.597Z,8.23
2019-02-18T14:44:55.532Z,8.10
2019-02-18T14:47:27.764Z,6.77
2019-02-18T14:49:58.612Z,9.10
2019-02-18T14:52:29.274Z,7.07
2019-02-18T14:54:59.929Z,8.67
2019-02-18T14:57:30.840Z,10.03
2019-02-18T15:00:01.504Z,7.83
2019-02-18T15:02:32.254Z,9.00
2019-02-18T15:05:03.108Z,9.50
2019-02-18T15:07:33.054Z,8.73
2019-02-18T15:10:04.097Z,8.53
2019-02-18T15:12:34.299Z,8.67
2019-02-18T15:15:04.678Z,7.73
2019-02-18T15:17:35.334Z,7.93
2019-02-18T15:20:05.638Z,9.13
2019-02-18T15:22:36.373Z,10.90
2019-02-18T15:25:07.036Z,11.27
2019-02-18T15:27:37.272Z,8.60
2019-02-18T15:30:08.044Z,8.80
2019-02-18T15:32:38.328Z,9.10
2019-02-18T15:35:09.060Z,9.57
2019-02-18T15:37:39.360Z,10.23
2019-02-18T15:40:10.200Z,8.70
2019-02-18T15:42:42.567Z,9.87
2019-02-18T15:45:12.948Z,8.97
2019-02-18T15:47:43.618Z,7.43
2019-02-18T15:50:15.007Z,7.60
2019-02-18T15:52:45.718Z,8.20
2019-02-18T15:55:16.188Z,8.90
2019-02-18T15:57:46.826Z,9.40
2019-02-18T16:00:21.741Z,9.17
2019-02-18T16:02:52.301Z,11.23
2019-02-18T16:05:23.055Z,12.30
2019-02-18T16:07:53.715Z,16.47
2019-02-18T16:10:24.027Z,16.57
2019-02-18T16:12:54.369Z,18.47
2019-02-18T16:15:25.260Z,21.70
2019-02-18T16:17:55.120Z,21.97
2019-02-18T16:20:25.532Z,16.17
2019-02-18T16:22:56.223Z,18.97
2019-02-18T16:25:26.918Z,19.67
2019-02-18T16:27:57.510Z,14.03
2019-02-18T16:30:28.163Z,16.13
2019-02-18T16:32:58.756Z,10.70
2019-02-18T16:35:29.250Z,12.07
2019-02-18T16:37:59.870Z,9.83
2019-02-18T16:40:30.628Z,16.37
2019-02-18T16:43:00.952Z,14.23
2019-02-18T16:45:31.531Z,9.07
2019-02-18T16:48:02.637Z,16.50
2019-02-18T16:50:33.529Z,12.00
2019-02-18T16:53:03.737Z,10.70
2019-02-18T16:55:34.430Z,11.83
2019-02-18T16:58:04.759Z,9.40
2019-02-18T17:00:35.268Z,9.57
2019-02-18T17:03:06.036Z,9.20
2019-02-18T17:05:36.603Z,10.57
2019-02-18T17:08:07.227Z,10.63
2019-02-18T17:10:37.432Z,11.27
2019-02-18T17:13:08.626Z,11.20
2019-02-18T17:15:38.788Z,12.17
2019-02-18T17:18:09.440Z,16.03
2019-02-18T17:20:40.016Z,11.60
2019-02-18T17:23:10.692Z,10.17
2019-02-18T17:25:41.016Z,9.43
2019-02-18T17:28:10.945Z,7.87
2019-02-18T17:30:41.616Z,15.63
2019-02-18T17:33:12.006Z,40.33
2019-02-18T17:35:42.499Z,63.43
2019-02-18T17:38:13.080Z,63.47
2019-02-18T17:40:43.562Z,72.33
2019-02-18T17:43:16.446Z,58.90
2019-02-18T17:45:46.128Z,36.87
2019-02-18T17:48:16.473Z,23.17
2019-02-18T17:50:48.600Z,16.23
2019-02-18T17:53:18.918Z,12.23
2019-02-18T17:55:49.490Z,11.40
2019-02-18T17:58:20.202Z,11.93
2019-02-18T18:00:53.642Z,10.47
2019-02-18T18:03:24.522Z,11.00
2019-02-18T18:05:55.016Z,9.53
2019-02-18T18:08:25.531Z,9.67
2019-02-18T18:10:55.924Z,9.97
2019-02-18T18:13:26.486Z,13.93
2019-02-18T18:15:57.135Z,11.87
2019-02-18T18:18:27.820Z,76.73
2019-02-18T18:20:57.426Z,19.30
2019-02-18T18:23:27.758Z,10.00
2019-02-18T18:25:58.112Z,8.03
2019-02-18T18:28:28.718Z,11.03
2019-02-18T18:30:59.711Z,8.80
2019-02-18T18:33:30.391Z,11.70
2019-02-18T18:36:00.944Z,12.30
2019-02-18T18:38:30.769Z,10.30
2019-02-18T18:41:01.486Z,8.97
2019-02-18T18:43:34.071Z,10.33
2019-02-18T18:46:04.288Z,10.53
2019-02-18T18:48:34.890Z,8.77
2019-02-18T18:51:06.900Z,8.73
2019-02-18T18:53:37.110Z,8.97
2019-02-18T18:56:07.693Z,7.27
2019-02-18T18:58:37.665Z,11.80
2019-02-18T19:01:08.340Z,11.37
2019-02-18T19:03:38.562Z,8.43
2019-02-18T19:06:09.274Z,10.97
2019-02-18T19:08:38.769Z,7.57
2019-02-18T19:11:08.683Z,10.97
2019-02-18T19:13:42.136Z,8.27
2019-02-18T19:16:11.328Z,10.23
2019-02-18T19:18:42.473Z,9.17
2019-02-18T19:21:13.098Z,8.10
2019-02-18T19:23:43.754Z,9.57
2019-02-18T19:26:14.122Z,9.73
2019-02-18T19:28:44.240Z,9.90
2019-02-18T19:31:14.854Z,8.50
2019-02-18T19:33:45.106Z,10.90
2019-02-18T19:36:15.633Z,10.33
2019-02-18T19:38:46.228Z,9.43
2019-02-18T19:41:16.450Z,7.83
2019-02-18T19:43:50.301Z,9.03
2019-02-18T19:46:19.258Z,7.93
2019-02-18T19:48:50.228Z,7.37
2019-02-18T19:51:20.457Z,9.53
2019-02-18T19:53:51.134Z,8.47
2019-02-18T19:56:21.752Z,8.83
2019-02-18T19:58:52.324Z,7.73
2019-02-18T20:01:22.994Z,10.50
2019-02-18T20:03:53.230Z,12.03
2019-02-18T20:06:23.520Z,14.13
2019-02-18T20:08:53.772Z,14.23
2019-02-18T20:11:24.366Z,13.43
2019-02-18T20:13:58.960Z,12.53
2019-02-18T20:16:27.182Z,11.47
2019-02-18T20:18:57.266Z,17.10
2019-02-18T20:21:27.562Z,18.77
2019-02-18T20:23:57.892Z,20.77
2019-02-18T20:26:28.227Z,29.83
2019-02-18T20:28:59.214Z,20.70
2019-02-18T20:31:29.840Z,13.87
2019-02-18T20:34:00.448Z,12.60
2019-02-18T20:36:31.065Z,11.27
2019-02-18T20:39:01.816Z,13.70
2019-02-18T20:41:32.591Z,12.80
2019-02-18T20:44:07.432Z,15.97
2019-02-18T20:46:54.282Z,11.53
2019-02-18T20:49:24.537Z,17.87
2019-02-18T20:51:55.354Z,17.27
2019-02-18T20:54:25.712Z,17.87
2019-02-18T20:56:56.260Z,19.30
2019-02-18T20:59:26.506Z,19.27
2019-02-18T21:01:57.288Z,15.53
2019-02-18T21:04:27.904Z,15.77
2019-02-18T21:06:58.569Z,16.63
2019-02-18T21:09:28.672Z,16.27
2019-02-18T21:11:58.547Z,13.27
2019-02-18T21:14:29.058Z,13.83
2019-02-18T21:16:59.644Z,15.47
2019-02-18T21:19:30.196Z,13.43
2019-02-18T21:22:00.390Z,15.70
2019-02-18T21:24:30.724Z,14.87
2019-02-18T21:27:01.282Z,14.63
2019-02-18T21:29:31.694Z,16.80
2019-02-18T21:32:02.524Z,14.67
2019-02-18T21:34:33.060Z,18.20
2019-02-18T21:37:03.538Z,13.73
2019-02-18T21:39:33.796Z,11.47
2019-02-18T21:42:04.146Z,9.03
2019-02-18T21:44:34.792Z,13.60
2019-02-18T21:47:05.100Z,15.13
2019-02-18T21:49:35.618Z,14.37
2019-02-18T21:52:06.244Z,18.03
2019-02-18T21:54:36.814Z,15.77
2019-02-18T21:57:07.016Z,16.60
2019-02-18T21:59:37.244Z,15.03
2019-02-18T22:02:07.714Z,14.30
2019-02-18T22:04:38.264Z,20.07
2019-02-18T22:07:08.405Z,14.97
2019-02-18T22:09:39.044Z,16.70
2019-02-18T22:12:09.949Z,20.57
2019-02-18T22:14:40.666Z,22.30
2019-02-18T22:17:10.830Z,20.10
2019-02-18T22:19:41.456Z,19.27
2019-02-18T22:22:11.828Z,19.73
2019-02-18T22:24:42.470Z,18.23
2019-02-18T22:27:13.288Z,20.73
2019-02-18T22:29:43.900Z,18.83
2019-02-18T22:32:14.138Z,20.57
2019-02-18T22:34:44.371Z,21.40
2019-02-18T22:37:15.034Z,22.70
2019-02-18T22:39:45.248Z,20.87
2019-02-18T22:42:15.466Z,18.63
2019-02-18T22:44:45.838Z,21.20
2019-02-18T22:47:15.972Z,18.40
2019-02-18T22:49:46.262Z,21.40
2019-02-18T22:52:16.078Z,17.93
2019-02-18T22:54:46.726Z,18.97
2019-02-18T22:57:17.348Z,17.80
2019-02-18T22:59:48.007Z,19.93
2019-02-18T23:02:18.394Z,17.13
2019-02-18T23:04:48.742Z,20.53
2019-02-18T23:07:19.186Z,18.23
2019-02-18T23:09:50.094Z,15.83
2019-02-18T23:12:20.686Z,26.60
2019-02-18T23:14:51.260Z,22.20
2019-02-18T23:17:21.828Z,22.87
2019-02-18T23:19:52.350Z,23.30
2019-02-18T23:22:22.851Z,24.80
2019-02-18T23:24:53.758Z,24.50
2019-02-18T23:27:24.326Z,22.97
2019-02-18T23:29:54.814Z,22.67
2019-02-18T23:32:25.067Z,21.13
2019-02-18T23:34:55.611Z,18.97
2019-02-18T23:37:26.002Z,18.57
2019-02-18T23:39:56.226Z,26.97
2019-02-18T23:42:26.756Z,20.30
2019-02-18T23:44:59.257Z,22.90
2019-02-18T23:47:29.198Z,26.27
2019-02-18T23:49:59.643Z,23.37
2019-02-18T23:52:30.092Z,21.10
2019-02-18T23:55:00.640Z,20.63
2019-02-18T23:57:42.288Z,21.50
